This is the latest recevied weather packets stored in our database for station/object W5HKR. If no packets are shown the sender has not sent any weather packets the latest 10 day(s).
| Time | Temp. | Humidity | Pressure | Rain* | Wind** | Luminosity | Snow |
|---|---|---|---|---|---|---|---|
| 1777093471 | 24.44° C | 87% | 979.3 hPa | 0 mm | - | - | - |
| 1777093399 | 18.33° C | 91% | 990.6 hPa | 0 mm | - | - | - |
| 1777093100 | 24.44° C | 87% | 979.2 hPa | 0 mm | - | - | - |
| 1777092500 | 18.33° C | 91% | 990.6 hPa | 0 mm | - | - | - |
| 1777092391 | 18.33° C | 91% | 990.6 hPa | 0 mm | - | - | - |
| 1777091898 | 25° C | 86% | 979.1 hPa | 0 mm | - | - | - |
| 1777091601 | 18.33° C | 91% | 990.6 hPa | 0 mm | - | - | - |
| 1777091299 | 25° C | 85% | 979.4 hPa | 0 mm | - | - | - |
| 1777091001 | 18.33° C | 91% | 990.6 hPa | 0 mm | - | - | - |
| 1777090232 | 25° C | 84% | 979.2 hPa | 0 mm | - | - | - |
| 1777090098 | 25° C | 84% | 979.1 hPa | 0 mm | - | - | - |
| 1777089798 | 25° C | 83% | 979 hPa | 0 mm | - | - | - |
| 1777089201 | 25.56° C | 83% | 979 hPa | 0 mm | - | - | - |
| 1777089151 | 18.33° C | 91% | 990.6 hPa | 0 mm | - | - | - |
| 1777088899 | 18.33° C | 91% | 990.6 hPa | 0 mm | - | - | - |
| 1777088300 | 25.56° C | 82% | 978.5 hPa | 0 mm | - | - | - |
| 1777088072 | 18.33° C | 91% | 990.6 hPa | 0 mm | - | - | - |
| 1777087700 | 18.33° C | 91% | 990.6 hPa | 0 mm | - | - | - |
| 1777087099 | 18.33° C | 91% | 990.6 hPa | 0 mm | - | - | - |
| 1777086990 | 18.33° C | 91% | 990.6 hPa | 0 mm | - | - | - |
| 1777086801 | 25.56° C | 80% | 978.7 hPa | 0 mm | - | - | - |
| 1777086500 | 18.33° C | 91% | 990.6 hPa | 0 mm | - | - | - |
| 1777086199 | 26.11° C | 79% | 978.3 hPa | 0 mm | - | - | - |
| 1777085900 | 26.11° C | 78% | 978.3 hPa | 0 mm | - | - | - |
| 1777085601 | 18.33° C | 91% | 990.6 hPa | 0 mm | - | - | - |
* Rain latest hour (hover to see other rain measurements)
** Current wind speed in m/s (hover to see current wind gust speed)